Time;durP1;ratioP1;P1;durP2;ratioP2;P2;SDS_P1;SDS_P2;PMS_P1;PMS_P2;Temp;Humidity;BMP_temperature;BMP_pressure;BME280_temperature;BME280_humidity;BME280_pressure;Samples;Min_cycle;Max_cycle;Signal;HPM_P1;HPM_P2
2022/10/30 00:00:42;;;;;;;5.67;3.53;;;;;;;;;;5100903;28;20242;-43
2022/10/30 00:03:11;;;;;;;6.10;3.20;;;;;;;;;;5092273;28;20204;-42
2022/10/30 00:05:40;;;;;;;5.93;2.80;;;;;;;;;;5091071;28;20208;-41
2022/10/30 00:08:08;;;;;;;3.73;3.00;;;;;;;;;;5097610;28;20214;-42
2022/10/30 00:10:35;;;;;;;4.97;2.70;;;;;;;;;;5109495;28;20223;-43
2022/10/30 00:13:02;;;;;;;4.10;2.70;;;;;;;;;;5095771;28;20204;-39
2022/10/30 00:15:30;;;;;;;4.27;3.10;;;;;;;;;;5110649;28;20275;-41
2022/10/30 00:17:57;;;;;;;5.30;3.40;;;;;;;;;;5113760;28;20198;-40
2022/10/30 00:20:25;;;;;;;6.30;3.80;;;;;;;;;;5104314;28;20228;-44
2022/10/30 00:22:52;;;;;;;7.17;3.07;;;;;;;;;;5113818;28;20196;-38
2022/10/30 00:25:19;;;;;;;6.93;3.00;;;;;;;;;;5100916;28;20212;-41
2022/10/30 00:27:46;;;;;;;4.50;2.60;;;;;;;;;;5107221;28;20205;-43
2022/10/30 00:30:14;;;;;;;6.37;3.40;;;;;;;;;;5105211;28;20451;-44
2022/10/30 00:32:43;;;;;;;5.37;3.27;;;;;;;;;;5110436;28;20200;-42
2022/10/30 00:35:10;;;;;;;9.17;3.80;;;;;;;;;;5097753;28;20268;-44
2022/10/30 00:37:37;;;;;;;8.57;3.50;;;;;;;;;;5101461;28;20209;-42
2022/10/30 00:40:05;;;;;;;7.50;3.27;;;;;;;;;;5112284;28;20227;-42
2022/10/30 00:42:33;;;;;;;4.90;2.80;;;;;;;;;;5103389;28;20204;-43
2022/10/30 00:45:00;;;;;;;3.77;2.30;;;;;;;;;;5105134;28;20305;-43
2022/10/30 00:47:28;;;;;;;4.70;2.67;;;;;;;;;;5113188;28;20509;-44
2022/10/30 00:49:59;;;;;;;7.60;3.40;;;;;;;;;;5103244;28;20227;-40
2022/10/30 00:52:29;;;;;;;7.00;3.43;;;;;;;;;;5100568;28;20196;-39
2022/10/30 00:54:57;;;;;;;4.10;3.07;;;;;;;;;;5110031;28;20200;-40
2022/10/30 00:57:26;;;;;;;7.83;3.57;;;;;;;;;;5113287;28;20200;-43
2022/10/30 00:59:53;;;;;;;2.90;2.63;;;;;;;;;;5104624;28;20220;-40
2022/10/30 01:02:20;;;;;;;6.50;3.60;;;;;;;;;;5096426;28;20206;-40
2022/10/30 01:04:48;;;;;;;6.60;3.17;;;;;;;;;;5098830;28;20200;-44
2022/10/30 01:07:17;;;;;;;8.50;4.00;;;;;;;;;;5111765;28;20205;-37
2022/10/30 01:09:46;;;;;;;3.43;2.70;;;;;;;;;;5105963;28;20223;-45
2022/10/30 01:12:13;;;;;;;7.33;3.17;;;;;;;;;;5104473;28;20214;-39
2022/10/30 01:14:43;;;;;;;4.60;3.30;;;;;;;;;;5104896;28;20226;-42
2022/10/30 01:17:15;;;;;;;4.57;3.87;;;;;;;;;;5113171;28;20200;-43
2022/10/30 01:19:44;;;;;;;4.87;3.53;;;;;;;;;;5099663;28;20208;-41
2022/10/30 01:22:28;;;;;;;5.80;3.00;;;;;;;;;;5109696;28;20217;-45
2022/10/30 01:25:03;;;;;;;3.30;3.00;;;;;;;;;;5102682;28;20198;-44
2022/10/30 01:27:39;;;;;;;4.23;3.10;;;;;;;;;;5111601;28;20203;-44
2022/10/30 01:30:19;;;;;;;5.17;3.30;;;;;;;;;;5100419;28;20234;-42
2022/10/30 01:32:53;;;;;;;3.30;3.00;;;;;;;;;;5104707;28;20205;-37
2022/10/30 01:35:24;;;;;;;6.00;2.70;;;;;;;;;;5104641;28;20208;-38
2022/10/30 01:37:54;;;;;;;5.37;2.87;;;;;;;;;;5109005;28;20208;-42
2022/10/30 01:40:21;;;;;;;4.07;2.80;;;;;;;;;;5112077;28;20265;-43
2022/10/30 01:42:50;;;;;;;4.03;2.87;;;;;;;;;;5112209;28;20689;-39
2022/10/30 01:45:20;;;;;;;6.73;3.20;;;;;;;;;;5099919;28;20211;-44
2022/10/30 01:47:53;;;;;;;4.30;2.77;;;;;;;;;;5111906;28;20202;-45
2022/10/30 01:50:26;;;;;;;2.80;2.60;;;;;;;;;;5101654;28;20241;-42
2022/10/30 01:52:58;;;;;;;3.40;2.67;;;;;;;;;;5110621;28;20215;-42
2022/10/30 01:55:30;;;;;;;4.20;2.80;;;;;;;;;;5111994;28;20209;-42
2022/10/30 01:58:00;;;;;;;3.87;2.70;;;;;;;;;;5110110;28;20206;-41
2022/10/30 02:00:27;;;;;;;3.50;2.90;;;;;;;;;;5094916;28;20226;-42
2022/10/30 02:02:55;;;;;;;7.83;3.07;;;;;;;;;;5099486;28;20206;-42
2022/10/30 02:05:26;;;;;;;4.43;3.00;;;;;;;;;;5101899;28;20217;-39
2022/10/30 02:07:55;;;;;;;8.33;3.67;;;;;;;;;;5103117;28;20201;-43
2022/10/30 02:10:22;;;;;;;7.67;3.53;;;;;;;;;;5108827;28;20227;-43
2022/10/30 02:12:49;;;;;;;6.23;3.13;;;;;;;;;;5113121;28;20201;-42
2022/10/30 02:15:17;;;;;;;4.97;3.63;;;;;;;;;;5097294;28;20200;-44
2022/10/30 02:17:44;;;;;;;5.07;3.00;;;;;;;;;;5108827;28;20209;-42
2022/10/30 02:20:16;;;;;;;5.90;3.10;;;;;;;;;;5103694;28;20222;-39
2022/10/30 02:22:43;;;;;;;6.50;3.13;;;;;;;;;;5111073;28;20204;-44
2022/10/30 02:25:10;;;;;;;5.23;2.97;;;;;;;;;;5104921;28;20195;-39
2022/10/30 02:27:37;;;;;;;4.97;3.20;;;;;;;;;;5115182;28;20192;-41
2022/10/30 02:30:05;;;;;;;6.13;3.80;;;;;;;;;;5107090;28;20231;-41
2022/10/30 02:32:32;;;;;;;10.50;4.07;;;;;;;;;;5097139;28;20206;-42
2022/10/30 02:34:59;;;;;;;6.17;4.00;;;;;;;;;;5111079;28;20210;-41
2022/10/30 02:37:28;;;;;;;7.23;3.60;;;;;;;;;;5114270;28;20204;-41
2022/10/30 02:39:55;;;;;;;8.87;3.87;;;;;;;;;;5112542;28;20222;-43
2022/10/30 02:42:23;;;;;;;5.20;3.37;;;;;;;;;;5114642;28;20295;-39
2022/10/30 02:44:50;;;;;;;5.73;3.13;;;;;;;;;;5108914;28;20253;-39
2022/10/30 02:47:17;;;;;;;7.77;3.33;;;;;;;;;;5109736;28;20212;-41
2022/10/30 02:49:44;;;;;;;9.60;4.30;;;;;;;;;;5104290;28;20216;-45
2022/10/30 02:52:11;;;;;;;5.77;3.43;;;;;;;;;;5114131;28;20214;-44
2022/10/30 02:54:39;;;;;;;8.27;3.60;;;;;;;;;;5114184;28;20206;-40
2022/10/30 02:57:07;;;;;;;5.23;2.93;;;;;;;;;;5219298;22;20312;-32
2022/10/30 02:59:34;;;;;;;6.43;2.70;;;;;;;;;;5119779;27;20209;-29
2022/10/30 03:02:01;;;;;;;5.20;2.93;;;;;;;;;;5124847;27;20200;-32
2022/10/30 03:04:28;;;;;;;4.30;3.07;;;;;;;;;;5105386;27;20204;-34
2022/10/30 03:06:55;;;;;;;5.20;2.87;;;;;;;;;;5115894;27;20210;-34
2022/10/30 03:09:22;;;;;;;7.63;3.37;;;;;;;;;;5110631;28;20223;-33
2022/10/30 03:11:51;;;;;;;8.23;3.70;;;;;;;;;;5094479;28;20218;-35
2022/10/30 03:14:18;;;;;;;4.90;3.40;;;;;;;;;;5103197;28;20205;-30
2022/10/30 03:16:45;;;;;;;3.17;2.63;;;;;;;;;;5118895;27;20192;-35
2022/10/30 03:19:12;;;;;;;5.23;2.93;;;;;;;;;;5101461;28;20208;-31
2022/10/30 03:21:39;;;;;;;6.70;2.93;;;;;;;;;;5105369;28;20224;-30
2022/10/30 03:24:06;;;;;;;7.43;3.37;;;;;;;;;;5111758;28;20204;-29
2022/10/30 03:26:34;;;;;;;8.50;3.50;;;;;;;;;;5109761;27;20207;-31
2022/10/30 03:29:02;;;;;;;6.70;3.57;;;;;;;;;;5113510;27;20250;-34
2022/10/30 03:31:31;;;;;;;7.83;3.80;;;;;;;;;;5113717;27;20226;-30
2022/10/30 03:33:58;;;;;;;6.50;3.67;;;;;;;;;;5105399;28;20204;-32
2022/10/30 03:36:26;;;;;;;4.40;3.30;;;;;;;;;;5114840;27;20200;-31
2022/10/30 03:38:53;;;;;;;4.40;2.87;;;;;;;;;;5131466;27;20193;-33
2022/10/30 03:41:20;;;;;;;7.80;3.47;;;;;;;;;;5131456;27;20227;-31
2022/10/30 03:43:47;;;;;;;9.53;3.83;;;;;;;;;;5108191;27;20203;-28
2022/10/30 03:46:15;;;;;;;6.70;3.40;;;;;;;;;;5116255;27;20206;-31
2022/10/30 03:48:42;;;;;;;4.57;3.73;;;;;;;;;;5098438;28;20198;-31
2022/10/30 03:51:09;;;;;;;6.70;3.93;;;;;;;;;;5116554;27;20220;-32
2022/10/30 03:53:37;;;;;;;4.23;3.47;;;;;;;;;;5121028;27;20204;-33
2022/10/30 03:56:05;;;;;;;8.87;3.73;;;;;;;;;;5106820;28;20219;-33
2022/10/30 03:58:32;;;;;;;6.17;3.57;;;;;;;;;;5110611;27;20211;-32
2022/10/30 04:01:01;;;;;;;6.43;3.50;;;;;;;;;;5108632;28;20225;-34
2022/10/30 04:03:29;;;;;;;8.17;3.80;;;;;;;;;;5104283;28;20212;-29
2022/10/30 04:05:56;;;;;;;7.50;4.60;;;;;;;;;;5110589;28;20200;-31
2022/10/30 04:08:24;;;;;;;5.20;3.07;;;;;;;;;;5122334;28;20210;-30
2022/10/30 04:10:51;;;;;;;6.37;3.73;;;;;;;;;;5110988;28;20228;-32
2022/10/30 04:13:19;;;;;;;6.50;3.87;;;;;;;;;;5106629;28;20215;-30
2022/10/30 04:15:47;;;;;;;8.07;3.77;;;;;;;;;;5097901;28;20211;-35
2022/10/30 04:18:15;;;;;;;8.73;3.67;;;;;;;;;;5109280;28;20200;-37
2022/10/30 04:20:44;;;;;;;5.23;3.03;;;;;;;;;;5109990;28;20220;-32
2022/10/30 04:23:13;;;;;;;6.53;3.57;;;;;;;;;;5110275;28;20199;-34
2022/10/30 04:25:40;;;;;;;6.73;3.93;;;;;;;;;;5110505;28;20219;-31
2022/10/30 04:28:07;;;;;;;5.60;3.40;;;;;;;;;;5103293;28;20215;-31
2022/10/30 04:30:35;;;;;;;7.27;3.70;;;;;;;;;;5112798;28;20230;-31
2022/10/30 04:33:03;;;;;;;6.37;3.13;;;;;;;;;;5104188;28;20219;-30
2022/10/30 04:35:32;;;;;;;6.13;3.00;;;;;;;;;;5106697;28;20218;-31
2022/10/30 04:38:00;;;;;;;7.67;3.17;;;;;;;;;;5102425;28;20205;-31
2022/10/30 04:40:28;;;;;;;5.87;3.40;;;;;;;;;;5109001;28;20224;-34
2022/10/30 04:42:55;;;;;;;6.13;3.40;;;;;;;;;;5102605;28;20225;-31
2022/10/30 04:45:23;;;;;;;7.07;3.73;;;;;;;;;;5104065;28;20215;-34
2022/10/30 04:47:50;;;;;;;5.70;3.27;;;;;;;;;;5111630;28;20275;-33
2022/10/30 04:50:18;;;;;;;8.10;3.50;;;;;;;;;;5107737;28;20227;-31
2022/10/30 04:52:45;;;;;;;10.63;3.73;;;;;;;;;;5116652;28;20203;-35
2022/10/30 04:55:13;;;;;;;7.23;3.40;;;;;;;;;;5111013;28;20207;-32
2022/10/30 04:57:40;;;;;;;5.70;3.20;;;;;;;;;;5112955;28;20192;-31
2022/10/30 05:00:08;;;;;;;5.80;3.17;;;;;;;;;;5109476;27;20223;-34
2022/10/30 05:02:36;;;;;;;6.13;3.50;;;;;;;;;;5114497;27;20203;-30
2022/10/30 05:05:03;;;;;;;6.30;3.40;;;;;;;;;;5112700;27;20211;-33
2022/10/30 05:07:30;;;;;;;5.87;3.33;;;;;;;;;;5121100;27;20294;-30
2022/10/30 05:09:57;;;;;;;6.37;3.40;;;;;;;;;;5111607;28;20230;-28
2022/10/30 05:12:26;;;;;;;4.87;3.27;;;;;;;;;;5104721;27;20502;-34
2022/10/30 05:14:53;;;;;;;6.20;3.10;;;;;;;;;;5116858;27;20210;-31
2022/10/30 05:17:20;;;;;;;5.57;3.60;;;;;;;;;;5133808;27;20199;-35
2022/10/30 05:19:47;;;;;;;5.13;3.10;;;;;;;;;;5114657;27;20206;-31
2022/10/30 05:22:15;;;;;;;3.40;2.77;;;;;;;;;;5109910;28;20200;-32
2022/10/30 05:24:42;;;;;;;6.67;3.10;;;;;;;;;;5103537;28;20234;-33
2022/10/30 05:27:09;;;;;;;5.13;3.03;;;;;;;;;;5113358;28;20205;-33
2022/10/30 05:29:38;;;;;;;6.73;3.00;;;;;;;;;;5105082;27;20212;-31
2022/10/30 05:32:05;;;;;;;6.37;3.23;;;;;;;;;;5116699;27;20291;-32
2022/10/30 05:34:32;;;;;;;7.03;3.63;;;;;;;;;;5108034;27;20210;-31
2022/10/30 05:37:00;;;;;;;3.23;2.93;;;;;;;;;;5125599;27;20200;-35
2022/10/30 05:39:27;;;;;;;7.37;3.10;;;;;;;;;;5124809;27;20244;-33
2022/10/30 05:41:54;;;;;;;6.57;2.87;;;;;;;;;;5111083;27;20218;-33
2022/10/30 05:44:21;;;;;;;2.97;2.63;;;;;;;;;;5109850;27;20206;-34
2022/10/30 05:46:50;;;;;;;3.37;2.60;;;;;;;;;;5117250;27;20196;-31
2022/10/30 05:49:17;;;;;;;4.77;3.00;;;;;;;;;;5103981;28;20205;-32
2022/10/30 05:51:44;;;;;;;4.43;2.80;;;;;;;;;;5113105;27;20223;-33
2022/10/30 05:54:11;;;;;;;3.17;2.70;;;;;;;;;;5117808;27;20205;-30
2022/10/30 05:56:38;;;;;;;4.30;2.90;;;;;;;;;;5105709;27;20220;-33
2022/10/30 05:59:05;;;;;;;5.80;2.73;;;;;;;;;;5130627;27;20199;-29
2022/10/30 06:01:33;;;;;;;5.90;3.10;;;;;;;;;;5114491;27;20219;-32
2022/10/30 06:04:01;;;;;;;5.73;2.90;;;;;;;;;;5105874;27;20206;-33
2022/10/30 06:06:28;;;;;;;6.40;3.40;;;;;;;;;;5114073;27;20208;-30
2022/10/30 06:08:55;;;;;;;5.17;2.83;;;;;;;;;;5111362;28;20209;-35
2022/10/30 06:11:23;;;;;;;10.60;3.37;;;;;;;;;;5114349;28;20315;-29
2022/10/30 06:13:50;;;;;;;4.53;3.37;;;;;;;;;;5104103;27;20223;-34
2022/10/30 06:16:18;;;;;;;4.63;3.10;;;;;;;;;;5124261;27;20204;-30
2022/10/30 06:18:45;;;;;;;4.67;2.80;;;;;;;;;;5109018;27;20205;-30
2022/10/30 06:21:13;;;;;;;3.93;3.23;;;;;;;;;;5107731;28;20226;-30
2022/10/30 06:23:40;;;;;;;7.90;3.33;;;;;;;;;;5123068;27;20227;-35
2022/10/30 06:26:07;;;;;;;5.83;3.33;;;;;;;;;;5114310;28;20233;-35
2022/10/30 06:28:34;;;;;;;5.07;3.40;;;;;;;;;;5109178;27;20212;-31
2022/10/30 06:31:02;;;;;;;6.27;3.27;;;;;;;;;;5115788;27;20220;-36
2022/10/30 06:33:29;;;;;;;3.20;2.63;;;;;;;;;;5119448;27;20211;-29
2022/10/30 06:35:56;;;;;;;6.57;3.33;;;;;;;;;;5118530;27;20200;-31
2022/10/30 06:38:25;;;;;;;4.77;3.10;;;;;;;;;;5122589;27;20255;-36
2022/10/30 06:40:52;;;;;;;6.07;3.27;;;;;;;;;;5096431;28;20217;-31
2022/10/30 06:43:19;;;;;;;4.87;3.20;;;;;;;;;;5093709;28;20204;-32
2022/10/30 06:45:46;;;;;;;6.13;3.20;;;;;;;;;;5119392;27;20265;-34
2022/10/30 06:48:14;;;;;;;3.70;3.30;;;;;;;;;;5128513;27;20203;-32
2022/10/30 06:50:41;;;;;;;7.20;3.50;;;;;;;;;;5104319;27;20235;-35
2022/10/30 06:53:08;;;;;;;6.03;2.97;;;;;;;;;;5124021;27;20209;-30
2022/10/30 06:55:36;;;;;;;4.30;2.90;;;;;;;;;;5134465;27;20217;-35
2022/10/30 06:58:03;;;;;;;6.20;3.00;;;;;;;;;;5123769;27;20272;-31
2022/10/30 07:00:31;;;;;;;6.37;3.30;;;;;;;;;;5117513;27;20221;-29
2022/10/30 07:02:58;;;;;;;6.67;2.80;;;;;;;;;;5113439;28;20200;-33
2022/10/30 07:05:26;;;;;;;2.60;2.40;;;;;;;;;;5111581;27;20199;-29
2022/10/30 07:07:53;;;;;;;3.33;2.90;;;;;;;;;;5122034;27;20198;-30
2022/10/30 07:10:20;;;;;;;4.93;2.73;;;;;;;;;;5113348;28;20231;-31
2022/10/30 07:12:55;;;;;;;5.73;3.03;;;;;;;;;;5112288;28;20205;-29
2022/10/30 07:15:22;;;;;;;7.63;2.90;;;;;;;;;;5108562;27;20246;-32
2022/10/30 07:17:56;;;;;;;4.90;3.03;;;;;;;;;;5110748;28;20286;-30
2022/10/30 07:20:23;;;;;;;4.80;3.23;;;;;;;;;;5101105;28;20217;-29
2022/10/30 07:22:50;;;;;;;3.20;2.70;;;;;;;;;;5097771;27;20209;-32
2022/10/30 07:25:18;;;;;;;4.70;3.00;;;;;;;;;;5119738;27;20206;-30
2022/10/30 07:27:46;;;;;;;4.87;3.00;;;;;;;;;;5113498;27;20206;-30
2022/10/30 07:30:15;;;;;;;3.40;3.00;;;;;;;;;;5113224;28;20462;-34
2022/10/30 07:32:42;;;;;;;6.43;3.50;;;;;;;;;;5109313;27;20323;-29
2022/10/30 07:35:11;;;;;;;7.43;3.20;;;;;;;;;;5097311;28;20208;-31
2022/10/30 07:37:38;;;;;;;8.60;3.40;;;;;;;;;;5104544;27;20199;-32
2022/10/30 07:40:06;;;;;;;4.73;3.10;;;;;;;;;;5119632;27;20234;-34
2022/10/30 07:42:34;;;;;;;8.03;3.10;;;;;;;;;;5111683;28;20214;-34
2022/10/30 07:45:01;;;;;;;6.23;3.20;;;;;;;;;;5104201;28;20356;-30
2022/10/30 07:47:29;;;;;;;7.07;3.40;;;;;;;;;;5115507;27;20195;-30
2022/10/30 07:49:56;;;;;;;10.20;4.07;;;;;;;;;;5111076;27;20216;-35
2022/10/30 07:52:24;;;;;;;5.93;2.83;;;;;;;;;;5120372;27;20210;-34
2022/10/30 07:54:51;;;;;;;4.60;3.30;;;;;;;;;;5106409;28;20196;-30
2022/10/30 07:57:18;;;;;;;6.43;3.13;;;;;;;;;;5106000;28;20208;-33
2022/10/30 07:59:45;;;;;;;4.47;3.10;;;;;;;;;;5118022;27;20208;-33
2022/10/30 08:02:12;;;;;;;5.90;3.50;;;;;;;;;;5123331;27;20200;-34
2022/10/30 08:04:40;;;;;;;11.97;3.63;;;;;;;;;;5109835;27;20204;-30
2022/10/30 08:07:18;;;;;;;7.50;3.47;;;;;;;;;;5120546;27;20200;-30
2022/10/30 08:09:46;;;;;;;4.30;3.13;;;;;;;;;;5132755;28;20206;-34
2022/10/30 08:12:13;;;;;;;4.20;3.03;;;;;;;;;;5099237;28;20210;-33
2022/10/30 08:14:40;;;;;;;10.17;3.93;;;;;;;;;;5107731;28;20248;-35
2022/10/30 08:17:09;;;;;;;7.57;3.73;;;;;;;;;;5107359;28;20199;-36
2022/10/30 08:19:38;;;;;;;8.93;3.80;;;;;;;;;;5102994;28;20292;-31
2022/10/30 08:22:07;;;;;;;11.30;3.93;;;;;;;;;;5100451;28;20259;-31
2022/10/30 08:24:34;;;;;;;7.50;3.20;;;;;;;;;;5106345;28;20265;-32
2022/10/30 08:27:01;;;;;;;8.83;3.53;;;;;;;;;;5108746;28;20308;-29
2022/10/30 08:29:28;;;;;;;7.47;3.60;;;;;;;;;;5099847;28;20200;-32
2022/10/30 08:32:00;;;;;;;6.70;3.23;;;;;;;;;;5103496;27;20222;-31
2022/10/30 08:34:30;;;;;;;5.50;3.07;;;;;;;;;;5111754;27;20211;-30
2022/10/30 08:36:57;;;;;;;7.93;3.17;;;;;;;;;;5111675;27;20200;-33
2022/10/30 08:39:26;;;;;;;4.43;3.23;;;;;;;;;;5112088;28;20209;-31
2022/10/30 08:41:53;;;;;;;5.13;3.40;;;;;;;;;;5112473;28;20219;-36
2022/10/30 08:44:20;;;;;;;8.77;3.50;;;;;;;;;;5106710;27;20211;-32
2022/10/30 08:46:47;;;;;;;9.43;3.93;;;;;;;;;;5128790;27;20206;-33
2022/10/30 08:49:14;;;;;;;8.93;3.50;;;;;;;;;;5109106;27;20209;-33
2022/10/30 08:51:41;;;;;;;5.00;3.43;;;;;;;;;;5111565;27;20223;-31
2022/10/30 08:54:10;;;;;;;6.73;3.73;;;;;;;;;;5115046;27;20231;-36
2022/10/30 08:56:38;;;;;;;8.70;3.90;;;;;;;;;;5101267;28;20221;-30
2022/10/30 08:59:08;;;;;;;8.57;3.90;;;;;;;;;;5096213;28;20284;-34
2022/10/30 09:01:36;;;;;;;11.30;4.37;;;;;;;;;;5105475;27;20232;-30
2022/10/30 09:04:03;;;;;;;9.83;3.50;;;;;;;;;;5103943;28;20206;-34
2022/10/30 09:06:31;;;;;;;11.17;4.50;;;;;;;;;;5110495;27;20201;-31
2022/10/30 09:08:58;;;;;;;7.23;3.60;;;;;;;;;;5118853;27;20211;-32
2022/10/30 09:11:25;;;;;;;11.70;4.17;;;;;;;;;;5099115;28;20470;-30
2022/10/30 09:13:54;;;;;;;11.37;3.90;;;;;;;;;;5099151;27;20208;-31
2022/10/30 09:16:21;;;;;;;9.60;4.57;;;;;;;;;;5110982;27;20216;-30
2022/10/30 09:18:48;;;;;;;8.53;4.60;;;;;;;;;;5100831;28;20208;-32
2022/10/30 09:21:15;;;;;;;11.27;4.83;;;;;;;;;;5117583;27;20221;-34
2022/10/30 09:23:43;;;;;;;13.87;4.70;;;;;;;;;;5112053;27;20214;-31
2022/10/30 09:26:10;;;;;;;10.97;4.63;;;;;;;;;;5094483;28;20461;-33
2022/10/30 09:28:37;;;;;;;9.80;4.23;;;;;;;;;;5097593;27;20211;-31
2022/10/30 09:31:06;;;;;;;7.00;4.37;;;;;;;;;;5118691;27;20227;-31
2022/10/30 09:33:33;;;;;;;9.50;4.77;;;;;;;;;;5115129;27;20211;-35
2022/10/30 09:36:01;;;;;;;10.30;4.80;;;;;;;;;;5104526;27;20222;-34
2022/10/30 09:38:29;;;;;;;11.30;4.87;;;;;;;;;;5106908;27;20291;-33
2022/10/30 09:41:05;;;;;;;14.43;4.30;;;;;;;;;;5102584;28;20228;-32
2022/10/30 09:43:38;;;;;;;11.20;3.60;;;;;;;;;;5099289;28;20212;-34
2022/10/30 09:46:13;;;;;;;8.17;3.47;;;;;;;;;;5115369;27;20227;-34
2022/10/30 09:48:50;;;;;;;8.53;4.47;;;;;;;;;;5116220;27;20205;-33
2022/10/30 09:51:23;;;;;;;11.03;4.50;;;;;;;;;;5108381;27;20233;-35
2022/10/30 09:53:56;;;;;;;12.63;4.03;;;;;;;;;;5118878;27;20199;-34
2022/10/30 09:56:25;;;;;;;8.70;3.70;;;;;;;;;;5105570;28;20215;-34
2022/10/30 09:59:00;;;;;;;9.33;3.53;;;;;;;;;;5107068;27;20299;-29
2022/10/30 10:01:31;;;;;;;7.37;3.23;;;;;;;;;;5116451;27;20216;-30
2022/10/30 10:04:01;;;;;;;14.93;4.40;;;;;;;;;;5104553;27;20210;-31
2022/10/30 10:06:29;;;;;;;6.50;3.40;;;;;;;;;;5106914;28;20272;-35
2022/10/30 10:08:58;;;;;;;6.17;3.50;;;;;;;;;;5119124;27;20200;-32
2022/10/30 10:11:28;;;;;;;9.47;3.17;;;;;;;;;;5102271;28;20221;-34
2022/10/30 10:13:57;;;;;;;6.03;3.47;;;;;;;;;;5110956;27;20203;-35
2022/10/30 10:16:35;;;;;;;9.03;3.43;;;;;;;;;;5117943;27;20211;-30
2022/10/30 10:19:07;;;;;;;9.53;3.37;;;;;;;;;;5103211;27;20198;-34
2022/10/30 10:21:37;;;;;;;9.70;3.37;;;;;;;;;;5115617;27;20224;-33
2022/10/30 10:24:05;;;;;;;11.93;3.70;;;;;;;;;;5111068;28;20203;-32
2022/10/30 10:26:43;;;;;;;3.80;2.67;;;;;;;;;;5107196;28;20207;-35
2022/10/30 10:29:18;;;;;;;7.87;3.77;;;;;;;;;;5113521;27;20213;-33
2022/10/30 10:31:51;;;;;;;13.03;3.47;;;;;;;;;;5118221;27;20247;-34
2022/10/30 10:34:33;;;;;;;5.80;3.63;;;;;;;;;;5097137;28;20205;-34
2022/10/30 10:37:03;;;;;;;12.83;3.20;;;;;;;;;;5101755;28;20200;-31
2022/10/30 10:39:38;;;;;;;7.27;2.80;;;;;;;;;;5102428;28;20200;-33
2022/10/30 10:42:10;;;;;;;5.77;2.83;;;;;;;;;;5093290;28;20206;-35
2022/10/30 10:44:47;;;;;;;8.17;3.00;;;;;;;;;;5107860;27;20227;-34
2022/10/30 10:47:32;;;;;;;8.87;3.43;;;;;;;;;;5116885;27;20204;-32
2022/10/30 10:50:16;;;;;;;10.00;3.17;;;;;;;;;;5091683;27;20219;-32
2022/10/30 10:52:45;;;;;;;10.17;3.37;;;;;;;;;;5112941;27;20221;-34
2022/10/30 10:55:16;;;;;;;8.60;2.90;;;;;;;;;;5111360;28;20195;-34
2022/10/30 10:57:44;;;;;;;10.00;3.27;;;;;;;;;;5110081;28;20217;-30
2022/10/30 11:00:15;;;;;;;9.83;3.67;;;;;;;;;;5111573;27;20230;-33
2022/10/30 11:02:44;;;;;;;7.47;3.33;;;;;;;;;;5120515;27;20204;-35
2022/10/30 11:05:20;;;;;;;6.70;2.80;;;;;;;;;;5104698;28;20212;-30
2022/10/30 11:07:48;;;;;;;4.57;2.60;;;;;;;;;;5112827;27;20184;-30
2022/10/30 11:10:16;;;;;;;8.90;3.43;;;;;;;;;;5110757;28;20230;-33
2022/10/30 11:12:44;;;;;;;9.37;3.00;;;;;;;;;;5108895;27;20253;-34
2022/10/30 11:15:19;;;;;;;6.40;2.60;;;;;;;;;;5107779;27;20213;-30
2022/10/30 11:17:50;;;;;;;4.87;2.40;;;;;;;;;;5102824;27;20195;-33
2022/10/30 11:20:20;;;;;;;7.33;2.57;;;;;;;;;;5106894;27;20230;-35
2022/10/30 11:22:50;;;;;;;4.60;2.47;;;;;;;;;;5108457;28;20200;-35
2022/10/30 11:25:21;;;;;;;5.07;2.33;;;;;;;;;;5110065;28;20196;-34
2022/10/30 11:27:49;;;;;;;7.37;3.00;;;;;;;;;;5103890;28;20201;-32
2022/10/30 11:30:20;;;;;;;5.00;2.77;;;;;;;;;;5091117;28;20227;-31
2022/10/30 11:32:48;;;;;;;8.33;2.60;;;;;;;;;;5107207;28;20227;-31
2022/10/30 11:35:16;;;;;;;5.40;2.60;;;;;;;;;;5099753;28;20199;-34
2022/10/30 11:37:46;;;;;;;7.30;2.73;;;;;;;;;;5117888;27;20277;-29
2022/10/30 11:40:20;;;;;;;9.37;2.57;;;;;;;;;;5131863;27;20227;-32
2022/10/30 11:42:48;;;;;;;5.03;2.47;;;;;;;;;;5125681;27;20200;-32
2022/10/30 11:45:17;;;;;;;4.83;2.30;;;;;;;;;;5111779;27;20238;-35
2022/10/30 11:47:44;;;;;;;8.37;4.37;;;;;;;;;;5111345;27;20413;-33
2022/10/30 11:50:17;;;;;;;7.10;2.70;;;;;;;;;;5104700;27;20228;-33
2022/10/30 11:52:46;;;;;;;8.50;2.90;;;;;;;;;;5107381;28;20217;-30
2022/10/30 11:55:17;;;;;;;4.93;2.60;;;;;;;;;;5110563;28;20439;-32
2022/10/30 11:57:45;;;;;;;6.47;2.40;;;;;;;;;;5105094;27;20203;-34
2022/10/30 12:00:16;;;;;;;7.70;2.83;;;;;;;;;;5114929;27;20230;-33
2022/10/30 12:02:44;;;;;;;6.50;3.50;;;;;;;;;;5111967;27;20200;-31
2022/10/30 12:05:30;;;;;;;5.83;2.27;;;;;;;;;;5103516;27;20207;-35
2022/10/30 12:08:16;;;;;;;4.93;2.30;;;;;;;;;;5110199;28;20205;-33
2022/10/30 12:10:46;;;;;;;4.47;2.33;;;;;;;;;;5110585;28;20225;-30
2022/10/30 12:13:14;;;;;;;5.13;2.40;;;;;;;;;;5101929;28;20224;-32
2022/10/30 12:15:41;;;;;;;5.63;2.40;;;;;;;;;;5117667;28;20299;-32
2022/10/30 12:18:15;;;;;;;5.03;2.57;;;;;;;;;;5124788;28;20211;-35
2022/10/30 12:20:45;;;;;;;5.30;2.30;;;;;;;;;;5106575;28;20267;-34
2022/10/30 12:23:18;;;;;;;6.33;2.30;;;;;;;;;;5119814;28;20210;-33
2022/10/30 12:25:47;;;;;;;8.53;2.10;;;;;;;;;;5104720;28;20286;-34
2022/10/30 12:28:15;;;;;;;8.10;2.47;;;;;;;;;;5099816;28;20212;-31
2022/10/30 12:30:48;;;;;;;5.30;2.10;;;;;;;;;;5113717;28;20282;-34
2022/10/30 12:33:17;;;;;;;7.33;2.40;;;;;;;;;;5108302;28;20228;-32
2022/10/30 12:35:46;;;;;;;6.87;3.30;;;;;;;;;;5105084;28;20233;-31
2022/10/30 12:38:17;;;;;;;5.87;4.17;;;;;;;;;;5120774;28;20199;-29
2022/10/30 12:40:56;;;;;;;9.00;3.97;;;;;;;;;;5107343;28;20307;-28
2022/10/30 12:43:25;;;;;;;8.57;2.90;;;;;;;;;;5089162;28;20202;-33
2022/10/30 12:45:55;;;;;;;8.57;2.50;;;;;;;;;;5100913;28;20209;-32
2022/10/30 12:48:24;;;;;;;6.70;2.30;;;;;;;;;;5114241;28;20283;-30
2022/10/30 12:50:56;;;;;;;6.60;2.53;;;;;;;;;;5109805;28;20227;-35
2022/10/30 12:53:28;;;;;;;4.43;2.23;;;;;;;;;;5114043;28;20220;-34
2022/10/30 12:55:57;;;;;;;5.73;2.47;;;;;;;;;;5105168;28;20242;-34
2022/10/30 12:58:28;;;;;;;5.40;1.90;;;;;;;;;;5095316;28;20289;-30
2022/10/30 13:00:57;;;;;;;8.63;2.63;;;;;;;;;;5111640;28;20228;-34
2022/10/30 13:03:29;;;;;;;4.30;2.20;;;;;;;;;;5101244;28;20197;-31
2022/10/30 13:05:58;;;;;;;5.33;2.77;;;;;;;;;;5104948;28;20199;-33
2022/10/30 13:08:29;;;;;;;7.17;2.30;;;;;;;;;;5120199;28;20199;-34
2022/10/30 13:10:58;;;;;;;8.97;2.20;;;;;;;;;;5109440;28;20220;-30
2022/10/30 13:13:28;;;;;;;5.37;2.53;;;;;;;;;;5101298;28;20224;-31
2022/10/30 13:15:56;;;;;;;5.90;2.70;;;;;;;;;;5106371;28;20219;-32
2022/10/30 13:18:25;;;;;;;5.67;3.03;;;;;;;;;;5121660;27;20208;-31
2022/10/30 13:21:11;;;;;;;6.57;3.13;;;;;;;;;;5109399;27;20252;-34
2022/10/30 13:23:46;;;;;;;7.20;3.17;;;;;;;;;;5107349;28;20192;-34
2022/10/30 13:26:21;;;;;;;4.03;2.60;;;;;;;;;;5112397;28;20294;-37
2022/10/30 13:28:56;;;;;;;3.77;2.50;;;;;;;;;;5105337;28;20203;-37
2022/10/30 13:31:28;;;;;;;4.97;2.27;;;;;;;;;;5112564;27;21008;-32
2022/10/30 13:34:00;;;;;;;7.57;2.40;;;;;;;;;;5107891;27;20211;-31
2022/10/30 13:36:32;;;;;;;3.90;1.67;;;;;;;;;;5114808;27;20208;-31
2022/10/30 13:39:03;;;;;;;5.43;2.50;;;;;;;;;;5114081;27;20203;-36
2022/10/30 13:41:34;;;;;;;6.73;2.70;;;;;;;;;;5112345;28;20224;-31
2022/10/30 13:44:05;;;;;;;11.23;3.77;;;;;;;;;;5111322;27;20201;-34
2022/10/30 13:46:48;;;;;;;3.77;2.67;;;;;;;;;;5104264;28;20227;-28
2022/10/30 13:49:27;;;;;;;4.23;3.20;;;;;;;;;;5098147;28;20209;-31
2022/10/30 13:51:56;;;;;;;3.93;2.50;;;;;;;;;;5128694;27;20229;-31
2022/10/30 13:54:28;;;;;;;8.57;2.13;;;;;;;;;;5113350;27;20207;-32
2022/10/30 13:56:56;;;;;;;6.27;2.23;;;;;;;;;;5111559;28;20220;-32
2022/10/30 13:59:43;;;;;;;4.80;2.47;;;;;;;;;;5106329;27;20207;-37
2022/10/30 14:02:15;;;;;;;5.57;2.00;;;;;;;;;;5116527;27;20210;-31
2022/10/30 14:04:48;;;;;;;4.83;3.20;;;;;;;;;;5103522;28;20206;-33
2022/10/30 14:07:22;;;;;;;5.00;2.20;;;;;;;;;;5109606;28;20200;-36
2022/10/30 14:09:55;;;;;;;6.93;3.20;;;;;;;;;;5118239;27;20200;-31
2022/10/30 14:12:40;;;;;;;5.93;3.73;;;;;;;;;;5103920;28;20224;-31
2022/10/30 14:15:16;;;;;;;6.00;2.43;;;;;;;;;;5100967;27;20207;-32
2022/10/30 14:17:58;;;;;;;6.27;3.33;;;;;;;;;;5117420;27;20597;-34
2022/10/30 14:20:27;;;;;;;9.70;4.17;;;;;;;;;;5102332;28;20228;-31
2022/10/30 14:23:07;;;;;;;6.73;3.60;;;;;;;;;;5116860;27;20208;-32
2022/10/30 14:25:36;;;;;;;5.87;3.53;;;;;;;;;;5103161;28;20227;-33
2022/10/30 14:28:03;;;;;;;5.77;2.47;;;;;;;;;;5108212;28;20204;-30
2022/10/30 14:30:31;;;;;;;3.43;2.03;;;;;;;;;;5117167;27;20223;-35
2022/10/30 14:32:58;;;;;;;12.30;6.40;;;;;;;;;;5117104;27;20220;-36
2022/10/30 14:35:43;;;;;;;8.17;4.53;;;;;;;;;;5103568;27;20200;-33
2022/10/30 14:38:25;;;;;;;6.90;2.73;;;;;;;;;;5106067;28;20225;-34
2022/10/30 14:41:16;;;;;;;7.23;3.00;;;;;;;;;;5109345;28;20216;-30
2022/10/30 14:43:48;;;;;;;6.40;2.83;;;;;;;;;;5069489;27;20316;-30
2022/10/30 14:46:19;;;;;;;4.00;2.80;;;;;;;;;;5103884;28;20211;-36
2022/10/30 14:48:48;;;;;;;11.27;4.37;;;;;;;;;;5107678;27;20201;-32
2022/10/30 14:51:20;;;;;;;5.77;3.60;;;;;;;;;;5102019;28;20235;-34
2022/10/30 14:53:54;;;;;;;11.67;6.70;;;;;;;;;;5115939;27;20247;-31